createdAt,value
2023-03-12T00:01:41.832Z,43.00
2023-03-12T00:04:08.448Z,43.00
2023-03-12T00:06:35.043Z,43.10
2023-03-12T00:09:02.043Z,43.20
2023-03-12T00:11:28.972Z,42.90
2023-03-12T00:13:56.661Z,42.80
2023-03-12T00:16:24.114Z,43.00
2023-03-12T00:18:52.127Z,43.50
2023-03-12T00:21:20.391Z,43.10
2023-03-12T00:23:47.842Z,43.50
2023-03-12T00:26:15.276Z,43.10
2023-03-12T00:28:42.269Z,43.20
2023-03-12T00:31:14.911Z,43.40
2023-03-12T00:33:41.488Z,43.00
2023-03-12T00:36:08.345Z,42.80
2023-03-12T00:38:34.900Z,43.00
2023-03-12T00:41:01.487Z,43.00
2023-03-12T00:43:28.064Z,42.60
2023-03-12T00:45:54.621Z,42.90
2023-03-12T00:48:21.180Z,42.70
2023-03-12T00:50:47.767Z,42.80
2023-03-12T00:53:14.347Z,42.90
2023-03-12T00:55:40.946Z,42.70
2023-03-12T00:58:07.523Z,42.60
2023-03-12T01:00:34.185Z,42.80
2023-03-12T01:03:00.950Z,42.50
2023-03-12T01:05:27.543Z,42.40
2023-03-12T01:07:54.099Z,42.80
2023-03-12T01:10:21.262Z,42.60
2023-03-12T01:12:47.909Z,42.40
2023-03-12T01:15:15.179Z,42.00
2023-03-12T01:17:41.729Z,42.40
2023-03-12T01:20:09.417Z,42.50
2023-03-12T01:22:36.529Z,42.40
2023-03-12T01:25:03.166Z,42.40
2023-03-12T01:27:29.728Z,42.60
2023-03-12T01:29:56.431Z,42.60
2023-03-12T01:32:23.025Z,42.70
2023-03-12T01:34:49.578Z,42.70
2023-03-12T01:37:16.137Z,42.80
2023-03-12T01:39:42.678Z,42.60
2023-03-12T01:42:09.375Z,42.80
2023-03-12T01:45:11.444Z,42.80
2023-03-12T01:47:38.001Z,42.70
2023-03-12T01:50:05.681Z,43.30
2023-03-12T01:52:33.641Z,43.10
2023-03-12T01:55:07.995Z,42.90
2023-03-12T01:57:37.692Z,43.00
2023-03-12T02:00:16.161Z,42.80
2023-03-12T02:02:43.713Z,42.80
2023-03-12T02:05:24.234Z,42.80
2023-03-12T02:07:50.806Z,42.60
2023-03-12T02:10:17.449Z,42.90
2023-03-12T02:12:44.181Z,42.80
2023-03-12T02:15:11.032Z,42.70
2023-03-12T02:17:37.942Z,42.70
2023-03-12T02:20:12.860Z,42.70
2023-03-12T02:22:40.989Z,42.60
2023-03-12T02:25:30.341Z,42.60
2023-03-12T02:28:01.284Z,42.60
2023-03-12T02:30:28.369Z,42.70
2023-03-12T02:32:55.757Z,42.80
2023-03-12T02:35:22.478Z,42.50
2023-03-12T02:37:54.094Z,42.60
2023-03-12T02:40:24.140Z,43.20
2023-03-12T02:42:50.814Z,42.50
2023-03-12T02:45:17.781Z,42.70
2023-03-12T02:47:44.396Z,42.40
2023-03-12T02:50:10.991Z,42.60
2023-03-12T02:52:38.179Z,42.70
2023-03-12T02:55:05.496Z,42.70
2023-03-12T02:57:32.084Z,42.60
2023-03-12T02:59:58.762Z,42.70
2023-03-12T03:02:25.381Z,43.50
2023-03-12T03:04:51.963Z,42.70
2023-03-12T03:07:18.537Z,42.50
2023-03-12T03:09:45.087Z,42.60
2023-03-12T03:12:11.658Z,42.70
2023-03-12T03:14:38.308Z,42.70
2023-03-12T03:17:05.007Z,42.70
2023-03-12T03:19:31.620Z,42.60
2023-03-12T03:21:58.185Z,42.30
2023-03-12T03:24:24.824Z,42.50
2023-03-12T03:26:51.475Z,42.70
2023-03-12T03:29:18.065Z,42.20
2023-03-12T03:31:44.633Z,42.40
2023-03-12T03:34:11.203Z,42.50
2023-03-12T03:36:37.764Z,42.20
2023-03-12T03:39:05.115Z,42.10
2023-03-12T03:41:32.961Z,42.30
2023-03-12T03:43:59.578Z,42.20
2023-03-12T03:46:26.509Z,42.20
2023-03-12T03:48:53.146Z,42.10
2023-03-12T03:51:20.005Z,42.50
2023-03-12T03:53:46.579Z,42.40
2023-03-12T03:56:14.499Z,42.60
2023-03-12T03:58:41.147Z,42.80
2023-03-12T04:01:07.851Z,42.70
2023-03-12T04:03:34.655Z,42.20
2023-03-12T04:06:03.409Z,43.20
2023-03-12T04:08:30.166Z,43.00
2023-03-12T04:10:56.712Z,42.80
2023-03-12T04:13:23.300Z,42.50
2023-03-12T04:15:51.176Z,42.60
2023-03-12T04:18:18.139Z,42.60
2023-03-12T04:20:44.972Z,42.80
2023-03-12T04:23:11.939Z,42.50
2023-03-12T04:25:39.052Z,42.40
2023-03-12T04:28:05.998Z,42.70
2023-03-12T04:30:32.599Z,42.50
2023-03-12T04:32:59.150Z,42.60
2023-03-12T04:35:25.748Z,42.40
2023-03-12T04:37:52.401Z,42.50
2023-03-12T04:40:20.013Z,42.60
2023-03-12T04:42:46.913Z,42.40
2023-03-12T04:45:13.679Z,42.50
2023-03-12T04:47:40.395Z,42.60
2023-03-12T04:50:07.172Z,42.40
2023-03-12T04:52:33.750Z,42.30
2023-03-12T04:55:00.500Z,42.60
2023-03-12T04:57:27.084Z,42.50
2023-03-12T04:59:53.717Z,42.60
2023-03-12T05:02:20.328Z,42.30
2023-03-12T05:04:46.925Z,42.50
2023-03-12T05:07:13.699Z,42.50
2023-03-12T05:09:40.269Z,42.50
2023-03-12T05:12:06.964Z,42.40
2023-03-12T05:14:33.524Z,42.50
2023-03-12T05:17:00.171Z,42.50
2023-03-12T05:19:26.744Z,42.30
2023-03-12T05:21:53.298Z,42.90
2023-03-12T05:24:21.888Z,42.30
2023-03-12T05:26:48.484Z,42.50
2023-03-12T05:29:15.051Z,42.60
2023-03-12T05:31:41.625Z,42.50
2023-03-12T05:34:08.270Z,43.10
2023-03-12T05:36:34.909Z,42.30
2023-03-12T05:39:01.539Z,41.80
2023-03-12T05:41:28.923Z,42.20
2023-03-12T05:43:56.435Z,41.80
2023-03-12T05:46:24.149Z,41.70
2023-03-12T05:48:51.119Z,41.30
2023-03-12T05:51:17.835Z,41.60
2023-03-12T05:53:44.546Z,42.00
2023-03-12T05:56:12.481Z,41.30
2023-03-12T05:58:39.114Z,41.60
2023-03-12T06:01:14.093Z,41.80
2023-03-12T06:03:40.979Z,42.00
2023-03-12T06:06:07.610Z,41.60
2023-03-12T06:08:34.211Z,41.20
2023-03-12T06:11:00.755Z,41.60
2023-03-12T06:13:28.329Z,41.30
2023-03-12T06:15:54.892Z,41.20
2023-03-12T06:18:21.457Z,41.30
2023-03-12T06:20:48.304Z,41.40
2023-03-12T06:23:15.272Z,41.00
2023-03-12T06:25:44.411Z,41.10
2023-03-12T06:28:10.986Z,41.10
2023-03-12T06:30:37.530Z,40.90
2023-03-12T06:33:04.708Z,40.90
2023-03-12T06:35:31.300Z,41.10
2023-03-12T06:37:57.883Z,41.10
2023-03-12T06:40:24.442Z,40.80
2023-03-12T06:42:51.399Z,41.00
2023-03-12T06:45:18.108Z,41.30
2023-03-12T06:47:44.892Z,41.10
2023-03-12T06:50:11.536Z,41.40
2023-03-12T06:52:38.201Z,41.40
2023-03-12T06:55:05.375Z,41.50
2023-03-12T06:57:31.918Z,41.20
2023-03-12T06:59:58.598Z,41.70
2023-03-12T07:02:25.176Z,41.80
2023-03-12T07:04:52.281Z,41.90
2023-03-12T07:07:20.047Z,41.90
2023-03-12T07:09:46.640Z,41.60
2023-03-12T07:12:13.254Z,41.90
2023-03-12T07:14:39.796Z,41.70
2023-03-12T07:17:06.471Z,42.20
2023-03-12T07:19:33.207Z,42.10
2023-03-12T07:21:59.887Z,42.30
2023-03-12T07:24:26.459Z,42.30
2023-03-12T07:26:53.023Z,42.30
2023-03-12T07:29:19.607Z,42.50
2023-03-12T07:31:46.251Z,42.50
2023-03-12T07:34:13.637Z,42.70
2023-03-12T07:36:40.506Z,42.90
2023-03-12T07:39:08.116Z,42.90
2023-03-12T07:41:37.334Z,43.00
2023-03-12T07:44:04.086Z,42.90
2023-03-12T07:46:31.034Z,43.00
2023-03-12T07:48:57.656Z,43.20
2023-03-12T07:51:24.250Z,43.20
2023-03-12T07:53:50.895Z,43.20
2023-03-12T07:56:17.619Z,43.10
2023-03-12T07:58:44.426Z,43.00
2023-03-12T08:01:11.061Z,43.00
2023-03-12T08:03:38.951Z,43.10
2023-03-12T08:06:06.309Z,43.00
2023-03-12T08:08:33.031Z,43.20
2023-03-12T08:10:59.969Z,43.20
2023-03-12T08:13:26.675Z,43.30
2023-03-12T08:15:54.011Z,43.30
2023-03-12T08:18:21.067Z,43.40
2023-03-12T08:20:50.080Z,43.40
2023-03-12T08:23:16.645Z,43.50
2023-03-12T08:25:44.772Z,43.50
2023-03-12T08:28:11.321Z,43.50
2023-03-12T08:30:37.898Z,43.60
2023-03-12T08:33:04.651Z,43.60
2023-03-12T08:35:31.287Z,43.70
2023-03-12T08:37:57.958Z,43.60
2023-03-12T08:40:24.574Z,43.80
2023-03-12T08:42:51.147Z,43.80
2023-03-12T08:45:17.802Z,43.90
2023-03-12T08:47:44.549Z,43.70
2023-03-12T08:50:12.017Z,43.70
2023-03-12T08:52:39.009Z,43.70
2023-03-12T08:55:06.188Z,43.70
2023-03-12T08:57:32.874Z,43.80
2023-03-12T08:59:59.468Z,44.00
2023-03-12T09:02:26.052Z,44.00
2023-03-12T09:04:52.637Z,44.20
2023-03-12T09:07:19.207Z,44.10
2023-03-12T09:09:45.781Z,44.10
2023-03-12T09:12:12.367Z,44.40
2023-03-12T09:17:25.763Z,44.10
2023-03-12T09:19:52.402Z,44.20
2023-03-12T09:22:18.988Z,44.30
2023-03-12T09:24:45.537Z,44.30
2023-03-12T09:27:12.146Z,44.10
2023-03-12T09:29:49.668Z,44.40
2023-03-12T09:32:23.731Z,44.10
2023-03-12T09:34:50.323Z,44.20
2023-03-12T09:37:16.993Z,44.00
2023-03-12T09:39:43.572Z,43.90
2023-03-12T09:42:20.473Z,44.00
2023-03-12T09:44:47.136Z,43.90
2023-03-12T09:47:23.712Z,44.10
2023-03-12T09:49:54.154Z,44.20
2023-03-12T09:52:23.978Z,44.20
2023-03-12T09:55:02.121Z,44.30
2023-03-12T09:57:29.925Z,44.40
2023-03-12T09:59:56.897Z,44.50
2023-03-12T10:02:42.211Z,44.50
2023-03-12T10:05:17.742Z,44.50
2023-03-12T10:07:58.412Z,44.30
2023-03-12T10:10:37.189Z,44.40
2023-03-12T10:13:06.933Z,44.40
2023-03-12T10:15:42.178Z,44.50
2023-03-12T10:18:27.758Z,44.50
2023-03-12T10:21:11.151Z,44.50
2023-03-12T10:23:54.035Z,44.60
2023-03-12T10:26:25.671Z,44.60
2023-03-12T10:28:55.816Z,44.70
2023-03-12T10:31:27.729Z,44.60
2023-03-12T10:33:58.916Z,44.70
2023-03-12T10:36:28.334Z,44.70
2023-03-12T10:38:55.112Z,44.70
2023-03-12T10:41:24.441Z,44.70
2023-03-12T10:43:51.430Z,44.70
2023-03-12T10:46:44.577Z,44.70
2023-03-12T10:49:23.621Z,44.70
2023-03-12T10:51:57.835Z,44.80
2023-03-12T10:54:33.848Z,44.80
2023-03-12T10:57:00.554Z,44.90
2023-03-12T10:59:28.966Z,45.00
2023-03-12T11:01:55.591Z,45.00
2023-03-12T11:04:24.873Z,45.00
2023-03-12T11:07:05.502Z,44.90
2023-03-12T11:09:32.316Z,44.80
2023-03-12T11:11:58.842Z,44.90
2023-03-12T11:14:27.535Z,45.00
2023-03-12T11:16:54.668Z,45.00
2023-03-12T11:19:29.616Z,45.00
2023-03-12T11:22:00.414Z,44.90
2023-03-12T11:24:27.048Z,44.60
2023-03-12T11:26:57.390Z,44.40
2023-03-12T11:29:26.076Z,44.50
2023-03-12T11:32:01.754Z,45.00
2023-03-12T11:34:29.749Z,44.90
2023-03-12T11:37:15.267Z,44.60
2023-03-12T11:39:41.812Z,44.70
2023-03-12T11:42:16.106Z,44.60
2023-03-12T11:45:04.108Z,44.60
2023-03-12T11:47:51.057Z,44.50
2023-03-12T11:50:17.666Z,44.60
2023-03-12T11:53:10.850Z,44.60
2023-03-12T11:56:00.811Z,44.60
2023-03-12T11:58:39.643Z,44.70
2023-03-12T12:01:18.294Z,44.60
2023-03-12T12:03:54.005Z,44.70
2023-03-12T12:06:40.422Z,44.80
2023-03-12T12:09:11.660Z,44.80
2023-03-12T12:11:47.154Z,44.60
2023-03-12T12:14:16.485Z,44.50
2023-03-12T12:16:46.298Z,44.30
2023-03-12T12:19:22.166Z,44.40
2023-03-12T12:21:48.732Z,44.40
2023-03-12T12:24:29.295Z,44.10
2023-03-12T12:27:07.725Z,44.20
2023-03-12T12:29:36.631Z,44.40
2023-03-12T12:32:05.617Z,44.30
2023-03-12T12:34:41.932Z,44.20
2023-03-12T12:37:18.398Z,44.00
2023-03-12T12:39:50.034Z,44.00
2023-03-12T12:42:20.978Z,43.80
2023-03-12T12:44:49.278Z,43.50
2023-03-12T12:47:18.603Z,43.50
2023-03-12T12:49:47.220Z,43.50
2023-03-12T12:52:16.789Z,43.60
2023-03-12T12:55:02.319Z,43.60
2023-03-12T12:57:44.714Z,43.80
2023-03-12T13:00:22.050Z,43.70
2023-03-12T13:02:49.251Z,43.40
2023-03-12T13:05:21.912Z,43.00
2023-03-12T13:07:48.630Z,42.80
2023-03-12T13:10:33.590Z,43.30
2023-03-12T13:13:03.436Z,43.40
2023-03-12T13:15:29.966Z,44.00
2023-03-12T13:17:56.537Z,43.20
2023-03-12T13:20:29.075Z,44.10
2023-03-12T13:22:59.962Z,44.50
2023-03-12T13:25:36.102Z,47.00
2023-03-12T13:28:23.030Z,47.00
2023-03-12T13:30:50.934Z,46.40
2023-03-12T13:33:21.196Z,46.00
2023-03-12T13:36:01.828Z,45.70
2023-03-12T13:38:35.973Z,45.40
2023-03-12T13:41:04.286Z,45.30
2023-03-12T13:43:33.214Z,45.10
2023-03-12T13:46:01.278Z,45.40
2023-03-12T13:48:28.069Z,45.20
2023-03-12T13:50:58.828Z,45.00
2023-03-12T13:53:33.329Z,45.10
2023-03-12T13:56:13.883Z,45.40
2023-03-12T13:58:41.671Z,45.30
2023-03-12T14:01:14.191Z,45.60
2023-03-12T14:03:43.964Z,45.40
2023-03-12T14:06:12.281Z,45.40
2023-03-12T14:08:56.917Z,45.10
2023-03-12T14:11:29.594Z,44.90
2023-03-12T14:13:56.135Z,44.80
2023-03-12T14:16:31.472Z,44.80
2023-03-12T14:18:58.266Z,45.00
2023-03-12T14:21:28.643Z,45.50
2023-03-12T14:23:57.795Z,45.20
2023-03-12T14:26:27.168Z,45.40
2023-03-12T14:29:02.073Z,45.20
2023-03-12T14:31:29.012Z,45.30
2023-03-12T14:33:55.621Z,44.90
2023-03-12T14:36:23.933Z,45.10
2023-03-12T14:38:51.107Z,45.00
2023-03-12T14:41:17.747Z,45.00
2023-03-12T14:43:46.286Z,44.70
2023-03-12T14:46:18.041Z,45.20
2023-03-12T14:48:47.290Z,45.30
2023-03-12T14:51:24.706Z,45.10
2023-03-12T14:53:51.845Z,45.00
2023-03-12T14:56:24.664Z,44.70
2023-03-12T14:58:51.934Z,44.50
2023-03-12T15:01:20.578Z,46.00
2023-03-12T15:03:48.831Z,45.60
2023-03-12T15:06:18.912Z,46.00
2023-03-12T15:08:45.837Z,46.50
2023-03-12T15:11:12.431Z,45.90
2023-03-12T15:13:39.751Z,45.90
2023-03-12T15:16:06.896Z,46.40
2023-03-12T15:18:33.662Z,46.90
2023-03-12T15:21:02.178Z,46.10
2023-03-12T15:23:33.458Z,46.70
2023-03-12T15:26:27.476Z,46.00
2023-03-12T15:28:55.039Z,46.10
2023-03-12T15:31:21.848Z,45.10
2023-03-12T15:33:59.654Z,44.90
2023-03-12T15:36:27.949Z,44.90
2023-03-12T15:39:00.284Z,45.00
2023-03-12T15:41:32.684Z,45.30
2023-03-12T15:43:59.559Z,44.70
2023-03-12T15:46:26.447Z,45.00
2023-03-12T15:48:55.204Z,44.90
2023-03-12T15:51:30.400Z,44.60
2023-03-12T15:54:15.830Z,45.00
2023-03-12T15:56:42.472Z,45.70
2023-03-12T15:59:15.107Z,48.90
2023-03-12T16:01:53.128Z,50.30
2023-03-12T16:04:20.446Z,49.80
2023-03-12T16:06:49.063Z,48.90
2023-03-12T16:09:20.606Z,49.50
2023-03-12T16:11:47.765Z,49.60
2023-03-12T16:14:17.244Z,49.70
2023-03-12T16:16:43.994Z,49.40
2023-03-12T16:19:14.700Z,49.60
2023-03-12T16:21:41.588Z,50.50
2023-03-12T16:24:08.466Z,49.80
2023-03-12T16:26:35.620Z,50.70
2023-03-12T16:29:02.552Z,51.90
2023-03-12T16:31:29.249Z,52.90
2023-03-12T16:33:55.973Z,53.90
2023-03-12T16:36:22.773Z,54.10
2023-03-12T16:38:49.357Z,52.10
2023-03-12T16:41:19.332Z,52.30
2023-03-12T16:43:48.483Z,51.40
2023-03-12T16:46:16.030Z,52.30
2023-03-12T16:48:42.639Z,52.40
2023-03-12T16:51:13.373Z,52.60
2023-03-12T16:53:39.973Z,53.20
2023-03-12T16:56:07.059Z,53.10
2023-03-12T16:58:33.752Z,52.70
2023-03-12T17:01:00.414Z,52.60
2023-03-12T17:03:36.467Z,52.50
2023-03-12T17:06:05.044Z,52.70
2023-03-12T17:08:31.653Z,54.30
2023-03-12T17:10:59.024Z,53.30
2023-03-12T17:13:26.757Z,54.50
2023-03-12T17:15:53.892Z,54.30
2023-03-12T17:18:20.636Z,53.70
2023-03-12T17:20:48.332Z,52.90
2023-03-12T17:23:14.924Z,52.50
2023-03-12T17:25:42.753Z,53.00
2023-03-12T17:28:09.880Z,53.40
2023-03-12T17:30:36.943Z,53.80
2023-03-12T17:33:05.177Z,54.00
2023-03-12T17:35:31.924Z,53.80
2023-03-12T17:37:58.816Z,53.60
2023-03-12T17:40:25.566Z,53.10
2023-03-12T17:42:52.430Z,52.50
2023-03-12T17:45:21.195Z,53.20
2023-03-12T17:47:47.881Z,52.50
2023-03-12T17:50:14.557Z,53.20
2023-03-12T17:52:41.158Z,52.80
2023-03-12T17:55:11.067Z,52.40
2023-03-12T17:57:38.253Z,53.00
2023-03-12T18:00:12.553Z,54.10
2023-03-12T18:02:40.284Z,54.10
2023-03-12T18:05:07.689Z,55.60
2023-03-12T18:07:34.504Z,54.40
2023-03-12T18:10:01.085Z,54.40
2023-03-12T18:12:27.908Z,54.50
2023-03-12T18:14:54.447Z,54.90
2023-03-12T18:17:21.118Z,55.00
2023-03-12T18:19:47.752Z,54.80
2023-03-12T18:22:14.818Z,54.60
2023-03-12T18:24:41.810Z,54.70
2023-03-12T18:27:08.522Z,54.80
2023-03-12T18:29:36.773Z,54.90
2023-03-12T18:32:03.821Z,55.10
2023-03-12T18:34:30.381Z,55.10
2023-03-12T18:36:57.127Z,54.90
2023-03-12T18:39:23.763Z,55.10
2023-03-12T18:41:50.372Z,55.30
2023-03-12T18:44:17.022Z,54.70
2023-03-12T18:46:43.731Z,54.80
2023-03-12T18:49:12.375Z,55.10
2023-03-12T18:51:39.182Z,55.20
2023-03-12T18:54:05.756Z,54.90
2023-03-12T18:56:32.385Z,55.10
2023-03-12T18:58:59.116Z,54.90
2023-03-12T19:01:26.363Z,55.10
2023-03-12T19:03:53.122Z,55.40
2023-03-12T19:06:19.745Z,54.80
2023-03-12T19:08:46.484Z,55.60
2023-03-12T19:11:14.627Z,55.20
2023-03-12T19:13:41.544Z,55.10
2023-03-12T19:16:09.443Z,54.80
2023-03-12T19:18:36.642Z,55.10
2023-03-12T19:21:03.738Z,55.40
2023-03-12T19:23:30.364Z,54.60
2023-03-12T19:25:56.947Z,54.90
2023-03-12T19:28:23.649Z,54.90
2023-03-12T19:30:50.220Z,57.00
2023-03-12T19:33:16.880Z,55.30
2023-03-12T19:35:43.526Z,55.40
2023-03-12T19:38:10.109Z,54.90
2023-03-12T19:40:36.682Z,56.40
2023-03-12T19:43:03.335Z,57.00
2023-03-12T19:45:30.013Z,56.70
2023-03-12T19:47:56.618Z,55.70
2023-03-12T19:50:24.045Z,56.10
2023-03-12T19:52:50.708Z,56.30
2023-03-12T19:55:17.337Z,55.80
2023-03-12T19:57:43.968Z,56.30
2023-03-12T20:00:12.125Z,55.70
2023-03-12T20:02:39.357Z,55.60
2023-03-12T20:05:06.908Z,55.70
2023-03-12T20:07:33.559Z,55.20
2023-03-12T20:10:00.270Z,55.40
2023-03-12T20:12:26.928Z,55.60
2023-03-12T20:14:53.484Z,55.20
2023-03-12T20:17:20.171Z,55.20
2023-03-12T20:19:46.759Z,55.70
2023-03-12T20:22:13.425Z,55.60
2023-03-12T20:24:40.643Z,55.40
2023-03-12T20:27:07.248Z,55.30
2023-03-12T20:29:33.829Z,55.70
2023-03-12T20:32:00.566Z,55.70
2023-03-12T20:34:27.175Z,55.90
2023-03-12T20:36:53.862Z,55.00
2023-03-12T20:39:20.605Z,55.70
2023-03-12T20:41:48.654Z,55.80
2023-03-12T20:44:15.247Z,55.70
2023-03-12T20:46:42.091Z,55.90
2023-03-12T20:49:08.699Z,56.00
2023-03-12T20:51:35.356Z,55.40
2023-03-12T20:54:02.630Z,55.30
2023-03-12T20:56:29.177Z,55.30
2023-03-12T20:58:55.935Z,56.30
2023-03-12T21:01:22.658Z,56.10
2023-03-12T21:03:49.238Z,55.80
2023-03-12T21:06:15.800Z,55.70
2023-03-12T21:08:42.420Z,55.40
2023-03-12T21:11:09.703Z,55.40
2023-03-12T21:13:36.367Z,56.00
2023-03-12T21:16:05.359Z,56.50
2023-03-12T21:18:32.063Z,55.80
2023-03-12T21:21:03.367Z,56.30
2023-03-12T21:23:30.477Z,56.00
2023-03-12T21:25:58.740Z,56.80
2023-03-12T21:28:25.336Z,56.90
2023-03-12T21:30:52.148Z,56.40
2023-03-12T21:33:18.793Z,55.90
2023-03-12T21:35:45.761Z,56.70
2023-03-12T21:38:12.791Z,56.50
2023-03-12T21:40:39.398Z,57.20
2023-03-12T21:43:05.954Z,56.70
2023-03-12T21:45:33.992Z,56.60
2023-03-12T21:48:00.539Z,56.50
2023-03-12T21:50:27.145Z,56.80
2023-03-12T21:52:53.681Z,56.80
2023-03-12T21:55:20.257Z,56.90
2023-03-12T21:57:46.830Z,56.40
2023-03-12T22:00:14.139Z,56.30
2023-03-12T22:02:41.436Z,56.50
2023-03-12T22:05:08.554Z,56.50
2023-03-12T22:07:35.147Z,56.60
2023-03-12T22:10:02.060Z,56.90
2023-03-12T22:12:28.668Z,56.80
2023-03-12T22:14:55.235Z,56.40
2023-03-12T22:17:21.891Z,56.60
2023-03-12T22:19:48.521Z,56.70
2023-03-12T22:22:15.104Z,56.70
2023-03-12T22:24:41.702Z,57.40
2023-03-12T22:27:08.435Z,57.20
2023-03-12T22:29:35.076Z,56.70
2023-03-12T22:32:01.949Z,56.80
2023-03-12T22:34:29.670Z,56.50
2023-03-12T22:36:56.264Z,56.50
2023-03-12T22:39:23.091Z,56.60
2023-03-12T22:41:53.517Z,57.50
2023-03-12T22:44:20.183Z,57.20
2023-03-12T22:46:46.860Z,57.90
2023-03-12T22:49:14.931Z,57.30
2023-03-12T22:51:41.503Z,56.40
2023-03-12T22:54:08.127Z,56.50
2023-03-12T22:56:34.779Z,56.40
2023-03-12T22:59:01.337Z,56.40
2023-03-12T23:01:28.013Z,57.00
2023-03-12T23:03:54.759Z,56.90
2023-03-12T23:06:22.986Z,56.20
2023-03-12T23:08:50.073Z,57.00
2023-03-12T23:11:17.405Z,57.30
2023-03-12T23:13:44.788Z,57.50
2023-03-12T23:16:12.883Z,56.90
2023-03-12T23:18:39.757Z,57.00
2023-03-12T23:21:10.493Z,56.30
2023-03-12T23:23:39.385Z,56.70
2023-03-12T23:26:06.493Z,56.90
2023-03-12T23:28:33.108Z,57.00
2023-03-12T23:31:01.193Z,56.90
2023-03-12T23:33:28.358Z,56.90
2023-03-12T23:35:55.240Z,56.70
2023-03-12T23:38:22.043Z,57.10
2023-03-12T23:40:48.969Z,56.90
2023-03-12T23:43:15.549Z,57.40
2023-03-12T23:45:42.370Z,57.50
2023-03-12T23:48:09.029Z,58.30
2023-03-12T23:50:35.958Z,57.80
2023-03-12T23:53:02.807Z,57.10
2023-03-12T23:55:29.542Z,57.30
2023-03-12T23:57:56.111Z,57.40
